sensor_id;sensor_type;location;lat;lon;timestamp;temperature;humidity
16523;DHT22;19889;52.546;13.348;2022-07-29T00:01:07;18.70;91.90
16523;DHT22;19889;52.546;13.348;2022-07-29T00:03:34;18.90;92.10
16523;DHT22;19889;52.546;13.348;2022-07-29T00:06:00;18.70;92.20
16523;DHT22;19889;52.546;13.348;2022-07-29T00:08:27;18.70;92.20
16523;DHT22;19889;52.546;13.348;2022-07-29T00:10:54;18.70;92.30
16523;DHT22;19889;52.546;13.348;2022-07-29T00:13:22;18.70;92.40
16523;DHT22;19889;52.546;13.348;2022-07-29T00:15:49;18.70;92.50
16523;DHT22;19889;52.546;13.348;2022-07-29T00:18:16;18.70;92.50
16523;DHT22;19889;52.546;13.348;2022-07-29T00:20:43;18.70;92.60
16523;DHT22;19889;52.546;13.348;2022-07-29T00:23:09;18.60;92.70
16523;DHT22;19889;52.546;13.348;2022-07-29T00:25:36;18.60;92.80
16523;DHT22;19889;52.546;13.348;2022-07-29T00:28:03;18.60;92.90
16523;DHT22;19889;52.546;13.348;2022-07-29T00:30:32;18.60;93.00
16523;DHT22;19889;52.546;13.348;2022-07-29T00:32:59;18.60;93.00
16523;DHT22;19889;52.546;13.348;2022-07-29T00:35:26;18.70;93.20
16523;DHT22;19889;52.546;13.348;2022-07-29T00:38:10;18.50;93.20
16523;DHT22;19889;52.546;13.348;2022-07-29T00:40:37;18.50;93.30
16523;DHT22;19889;52.546;13.348;2022-07-29T00:43:04;18.40;93.40
16523;DHT22;19889;52.546;13.348;2022-07-29T00:45:32;18.40;93.50
16523;DHT22;19889;52.546;13.348;2022-07-29T00:47:59;18.40;93.60
16523;DHT22;19889;52.546;13.348;2022-07-29T00:50:26;18.40;93.70
16523;DHT22;19889;52.546;13.348;2022-07-29T00:52:53;18.40;93.70
16523;DHT22;19889;52.546;13.348;2022-07-29T00:55:20;18.40;93.80
16523;DHT22;19889;52.546;13.348;2022-07-29T00:57:47;18.40;93.90
16523;DHT22;19889;52.546;13.348;2022-07-29T01:00:19;18.40;93.90
16523;DHT22;19889;52.546;13.348;2022-07-29T01:02:48;18.40;94.00
16523;DHT22;19889;52.546;13.348;2022-07-29T01:05:17;18.30;94.00
16523;DHT22;19889;52.546;13.348;2022-07-29T01:07:45;18.40;94.10
16523;DHT22;19889;52.546;13.348;2022-07-29T01:10:14;18.30;94.10
16523;DHT22;19889;52.546;13.348;2022-07-29T01:12:43;18.30;94.20
16523;DHT22;19889;52.546;13.348;2022-07-29T01:15:11;18.40;94.20
16523;DHT22;19889;52.546;13.348;2022-07-29T01:17:43;18.30;94.30
16523;DHT22;19889;52.546;13.348;2022-07-29T01:20:16;18.40;94.40
16523;DHT22;19889;52.546;13.348;2022-07-29T01:23:22;18.30;94.50
16523;DHT22;19889;52.546;13.348;2022-07-29T01:26:03;18.30;94.60
16523;DHT22;19889;52.546;13.348;2022-07-29T01:28:47;18.20;94.60
16523;DHT22;19889;52.546;13.348;2022-07-29T01:31:18;18.20;94.80
16523;DHT22;19889;52.546;13.348;2022-07-29T01:33:52;18.20;94.80
16523;DHT22;19889;52.546;13.348;2022-07-29T01:36:25;18.10;94.90
16523;DHT22;19889;52.546;13.348;2022-07-29T01:38:58;18.10;94.90
16523;DHT22;19889;52.546;13.348;2022-07-29T01:41:31;18.10;95.00
16523;DHT22;19889;52.546;13.348;2022-07-29T01:44:05;18.10;95.00
16523;DHT22;19889;52.546;13.348;2022-07-29T01:46:38;18.10;95.20
16523;DHT22;19889;52.546;13.348;2022-07-29T01:49:10;18.00;95.20
16523;DHT22;19889;52.546;13.348;2022-07-29T01:51:44;18.00;95.40
16523;DHT22;19889;52.546;13.348;2022-07-29T01:54:16;18.00;95.40
16523;DHT22;19889;52.546;13.348;2022-07-29T01:56:47;18.00;95.60
16523;DHT22;19889;52.546;13.348;2022-07-29T01:59:16;17.90;95.70
16523;DHT22;19889;52.546;13.348;2022-07-29T02:01:45;17.80;95.80
16523;DHT22;19889;52.546;13.348;2022-07-29T02:04:15;17.80;95.90
16523;DHT22;19889;52.546;13.348;2022-07-29T02:06:44;17.70;95.90
16523;DHT22;19889;52.546;13.348;2022-07-29T02:09:13;17.70;96.10
16523;DHT22;19889;52.546;13.348;2022-07-29T02:11:47;17.60;96.10
16523;DHT22;19889;52.546;13.348;2022-07-29T02:14:17;17.70;96.30
16523;DHT22;19889;52.546;13.348;2022-07-29T02:16:45;17.60;96.40
16523;DHT22;19889;52.546;13.348;2022-07-29T02:19:15;17.60;96.50
16523;DHT22;19889;52.546;13.348;2022-07-29T02:21:45;17.60;96.60
16523;DHT22;19889;52.546;13.348;2022-07-29T02:24:12;17.50;96.70
16523;DHT22;19889;52.546;13.348;2022-07-29T02:26:41;17.30;96.70
16523;DHT22;19889;52.546;13.348;2022-07-29T02:29:09;17.50;96.70
16523;DHT22;19889;52.546;13.348;2022-07-29T02:31:39;17.60;96.80
16523;DHT22;19889;52.546;13.348;2022-07-29T02:34:09;17.60;96.80
16523;DHT22;19889;52.546;13.348;2022-07-29T02:36:37;17.60;96.90
16523;DHT22;19889;52.546;13.348;2022-07-29T02:39:07;17.60;97.00
16523;DHT22;19889;52.546;13.348;2022-07-29T02:41:40;17.60;97.00
16523;DHT22;19889;52.546;13.348;2022-07-29T02:44:10;17.60;97.00
16523;DHT22;19889;52.546;13.348;2022-07-29T02:46:45;17.60;97.00
16523;DHT22;19889;52.546;13.348;2022-07-29T02:49:16;17.60;97.10
16523;DHT22;19889;52.546;13.348;2022-07-29T02:51:46;18.30;97.40
16523;DHT22;19889;52.546;13.348;2022-07-29T02:54:23;18.80;97.60
16523;DHT22;19889;52.546;13.348;2022-07-29T02:56:53;17.50;97.30
16523;DHT22;19889;52.546;13.348;2022-07-29T02:59:25;18.50;97.60
16523;DHT22;19889;52.546;13.348;2022-07-29T03:01:57;17.60;97.40
16523;DHT22;19889;52.546;13.348;2022-07-29T03:04:27;17.50;97.40
16523;DHT22;19889;52.546;13.348;2022-07-29T03:06:56;17.50;97.40
16523;DHT22;19889;52.546;13.348;2022-07-29T03:09:25;17.50;97.40
16523;DHT22;19889;52.546;13.348;2022-07-29T03:11:53;18.00;97.60
16523;DHT22;19889;52.546;13.348;2022-07-29T03:14:20;17.50;97.50
16523;DHT22;19889;52.546;13.348;2022-07-29T03:16:48;17.40;97.50
16523;DHT22;19889;52.546;13.348;2022-07-29T03:19:18;17.50;97.60
16523;DHT22;19889;52.546;13.348;2022-07-29T03:21:45;17.50;97.70
16523;DHT22;19889;52.546;13.348;2022-07-29T03:24:24;17.50;97.80
16523;DHT22;19889;52.546;13.348;2022-07-29T03:26:51;17.40;97.80
16523;DHT22;19889;52.546;13.348;2022-07-29T03:29:18;17.40;97.80
16523;DHT22;19889;52.546;13.348;2022-07-29T03:31:45;17.70;98.00
16523;DHT22;19889;52.546;13.348;2022-07-29T03:34:12;17.40;97.90
16523;DHT22;19889;52.546;13.348;2022-07-29T03:36:40;17.30;98.00
16523;DHT22;19889;52.546;13.348;2022-07-29T03:39:09;17.30;98.10
16523;DHT22;19889;52.546;13.348;2022-07-29T03:41:38;17.30;98.10
16523;DHT22;19889;52.546;13.348;2022-07-29T03:44:07;17.30;98.20
16523;DHT22;19889;52.546;13.348;2022-07-29T03:46:35;17.30;98.20
16523;DHT22;19889;52.546;13.348;2022-07-29T03:49:04;17.30;98.20
16523;DHT22;19889;52.546;13.348;2022-07-29T03:51:33;17.40;98.30
16523;DHT22;19889;52.546;13.348;2022-07-29T03:54:03;17.30;98.30
16523;DHT22;19889;52.546;13.348;2022-07-29T03:56:32;17.30;98.30
16523;DHT22;19889;52.546;13.348;2022-07-29T03:59:02;17.30;98.40
16523;DHT22;19889;52.546;13.348;2022-07-29T04:01:29;17.30;98.40
16523;DHT22;19889;52.546;13.348;2022-07-29T04:03:59;17.30;98.50
16523;DHT22;19889;52.546;13.348;2022-07-29T04:06:27;17.50;98.70
16523;DHT22;19889;52.546;13.348;2022-07-29T04:08:54;17.30;98.60
16523;DHT22;19889;52.546;13.348;2022-07-29T04:11:22;17.30;98.60
16523;DHT22;19889;52.546;13.348;2022-07-29T04:13:49;17.30;98.60
16523;DHT22;19889;52.546;13.348;2022-07-29T04:16:15;17.50;98.70
16523;DHT22;19889;52.546;13.348;2022-07-29T04:18:42;17.30;98.70
16523;DHT22;19889;52.546;13.348;2022-07-29T04:21:09;17.30;98.70
16523;DHT22;19889;52.546;13.348;2022-07-29T04:23:36;17.30;98.80
16523;DHT22;19889;52.546;13.348;2022-07-29T04:26:02;17.30;98.80
16523;DHT22;19889;52.546;13.348;2022-07-29T04:28:31;17.30;98.80
16523;DHT22;19889;52.546;13.348;2022-07-29T04:30:57;17.30;98.80
16523;DHT22;19889;52.546;13.348;2022-07-29T04:33:24;17.40;98.90
16523;DHT22;19889;52.546;13.348;2022-07-29T04:35:51;17.40;98.90
16523;DHT22;19889;52.546;13.348;2022-07-29T04:38:18;17.40;98.90
16523;DHT22;19889;52.546;13.348;2022-07-29T04:40:45;17.40;98.90
16523;DHT22;19889;52.546;13.348;2022-07-29T04:43:12;17.40;98.90
16523;DHT22;19889;52.546;13.348;2022-07-29T04:45:40;17.40;99.00
16523;DHT22;19889;52.546;13.348;2022-07-29T04:48:07;17.30;99.00
16523;DHT22;19889;52.546;13.348;2022-07-29T04:50:34;17.40;99.00
16523;DHT22;19889;52.546;13.348;2022-07-29T04:53:00;17.40;99.00
16523;DHT22;19889;52.546;13.348;2022-07-29T04:55:27;17.40;99.10
16523;DHT22;19889;52.546;13.348;2022-07-29T04:57:54;17.40;99.10
16523;DHT22;19889;52.546;13.348;2022-07-29T05:00:21;17.40;99.10
16523;DHT22;19889;52.546;13.348;2022-07-29T05:02:49;17.40;99.10
16523;DHT22;19889;52.546;13.348;2022-07-29T05:05:16;17.50;99.20
16523;DHT22;19889;52.546;13.348;2022-07-29T05:07:43;17.40;99.20
16523;DHT22;19889;52.546;13.348;2022-07-29T05:10:10;17.60;99.30
16523;DHT22;19889;52.546;13.348;2022-07-29T05:12:37;17.60;99.30
16523;DHT22;19889;52.546;13.348;2022-07-29T05:15:05;17.70;99.30
16523;DHT22;19889;52.546;13.348;2022-07-29T05:17:32;17.80;99.30
16523;DHT22;19889;52.546;13.348;2022-07-29T05:20:00;17.80;99.20
16523;DHT22;19889;52.546;13.348;2022-07-29T05:22:27;17.80;99.20
16523;DHT22;19889;52.546;13.348;2022-07-29T05:24:54;18.00;99.30
16523;DHT22;19889;52.546;13.348;2022-07-29T05:27:21;19.90;99.70
16523;DHT22;19889;52.546;13.348;2022-07-29T05:29:48;18.00;99.10
16523;DHT22;19889;52.546;13.348;2022-07-29T05:32:14;18.10;99.10
16523;DHT22;19889;52.546;13.348;2022-07-29T05:34:41;18.10;99.00
16523;DHT22;19889;52.546;13.348;2022-07-29T05:37:10;18.60;99.10
16523;DHT22;19889;52.546;13.348;2022-07-29T05:39:38;18.10;99.00
16523;DHT22;19889;52.546;13.348;2022-07-29T05:42:08;18.10;99.00
16523;DHT22;19889;52.546;13.348;2022-07-29T05:44:36;18.10;99.00
16523;DHT22;19889;52.546;13.348;2022-07-29T05:47:03;18.10;99.00
16523;DHT22;19889;52.546;13.348;2022-07-29T05:49:30;18.80;99.20
16523;DHT22;19889;52.546;13.348;2022-07-29T05:51:57;18.10;99.00
16523;DHT22;19889;52.546;13.348;2022-07-29T05:54:25;18.60;99.10
16523;DHT22;19889;52.546;13.348;2022-07-29T05:56:52;18.00;99.00
16523;DHT22;19889;52.546;13.348;2022-07-29T05:59:18;18.10;99.00
16523;DHT22;19889;52.546;13.348;2022-07-29T06:01:45;18.10;99.00
16523;DHT22;19889;52.546;13.348;2022-07-29T06:04:12;18.20;99.00
16523;DHT22;19889;52.546;13.348;2022-07-29T06:06:39;18.30;99.10
16523;DHT22;19889;52.546;13.348;2022-07-29T06:09:05;18.40;99.00
16523;DHT22;19889;52.546;13.348;2022-07-29T06:11:34;18.40;98.90
16523;DHT22;19889;52.546;13.348;2022-07-29T06:14:01;18.50;98.90
16523;DHT22;19889;52.546;13.348;2022-07-29T06:16:28;18.60;98.90
16523;DHT22;19889;52.546;13.348;2022-07-29T06:18:55;18.60;98.90
16523;DHT22;19889;52.546;13.348;2022-07-29T06:21:22;18.80;98.90
16523;DHT22;19889;52.546;13.348;2022-07-29T06:23:48;18.80;98.90
16523;DHT22;19889;52.546;13.348;2022-07-29T06:26:15;19.00;98.80
16523;DHT22;19889;52.546;13.348;2022-07-29T06:28:43;19.10;98.60
16523;DHT22;19889;52.546;13.348;2022-07-29T06:31:10;19.10;98.40
16523;DHT22;19889;52.546;13.348;2022-07-29T06:33:37;19.20;98.30
16523;DHT22;19889;52.546;13.348;2022-07-29T06:36:04;19.10;98.20
16523;DHT22;19889;52.546;13.348;2022-07-29T06:38:32;19.10;98.10
16523;DHT22;19889;52.546;13.348;2022-07-29T06:40:59;19.20;98.20
16523;DHT22;19889;52.546;13.348;2022-07-29T06:43:27;19.20;98.10
16523;DHT22;19889;52.546;13.348;2022-07-29T06:45:58;19.20;98.10
16523;DHT22;19889;52.546;13.348;2022-07-29T06:48:26;19.30;98.10
16523;DHT22;19889;52.546;13.348;2022-07-29T06:50:54;19.40;98.00
16523;DHT22;19889;52.546;13.348;2022-07-29T06:53:20;19.40;98.00
16523;DHT22;19889;52.546;13.348;2022-07-29T06:55:47;19.50;97.90
16523;DHT22;19889;52.546;13.348;2022-07-29T06:58:14;19.50;97.80
16523;DHT22;19889;52.546;13.348;2022-07-29T07:00:55;19.60;97.80
16523;DHT22;19889;52.546;13.348;2022-07-29T07:03:23;19.70;97.80
16523;DHT22;19889;52.546;13.348;2022-07-29T07:05:52;19.70;97.80
16523;DHT22;19889;52.546;13.348;2022-07-29T07:08:19;19.80;97.70
16523;DHT22;19889;52.546;13.348;2022-07-29T07:10:46;19.80;97.60
16523;DHT22;19889;52.546;13.348;2022-07-29T07:13:13;19.90;97.50
16523;DHT22;19889;52.546;13.348;2022-07-29T07:15:40;20.10;97.50
16523;DHT22;19889;52.546;13.348;2022-07-29T07:18:07;20.20;97.40
16523;DHT22;19889;52.546;13.348;2022-07-29T07:20:36;21.10;97.60
16523;DHT22;19889;52.546;13.348;2022-07-29T07:23:03;20.40;97.20
16523;DHT22;19889;52.546;13.348;2022-07-29T07:25:30;20.50;97.00
16523;DHT22;19889;52.546;13.348;2022-07-29T07:27:57;20.50;96.90
16523;DHT22;19889;52.546;13.348;2022-07-29T07:30:24;20.50;96.70
16523;DHT22;19889;52.546;13.348;2022-07-29T07:32:51;20.50;96.70
16523;DHT22;19889;52.546;13.348;2022-07-29T07:35:18;20.50;96.70
16523;DHT22;19889;52.546;13.348;2022-07-29T07:37:46;20.60;96.60
16523;DHT22;19889;52.546;13.348;2022-07-29T07:40:13;20.70;96.50
16523;DHT22;19889;52.546;13.348;2022-07-29T07:42:40;20.80;96.50
16523;DHT22;19889;52.546;13.348;2022-07-29T07:45:09;20.90;96.30
16523;DHT22;19889;52.546;13.348;2022-07-29T07:47:36;21.00;96.10
16523;DHT22;19889;52.546;13.348;2022-07-29T07:50:04;21.00;96.00
16523;DHT22;19889;52.546;13.348;2022-07-29T07:52:32;21.10;95.80
16523;DHT22;19889;52.546;13.348;2022-07-29T07:55:00;21.10;95.60
16523;DHT22;19889;52.546;13.348;2022-07-29T07:57:27;21.10;95.50
16523;DHT22;19889;52.546;13.348;2022-07-29T07:59:54;21.20;95.40
16523;DHT22;19889;52.546;13.348;2022-07-29T08:02:21;21.20;95.30
16523;DHT22;19889;52.546;13.348;2022-07-29T08:04:48;21.20;95.20
16523;DHT22;19889;52.546;13.348;2022-07-29T08:07:14;21.40;95.20
16523;DHT22;19889;52.546;13.348;2022-07-29T08:09:41;21.40;95.10
16523;DHT22;19889;52.546;13.348;2022-07-29T08:12:09;21.50;95.00
16523;DHT22;19889;52.546;13.348;2022-07-29T08:14:36;21.60;94.80
16523;DHT22;19889;52.546;13.348;2022-07-29T08:17:03;21.60;94.60
16523;DHT22;19889;52.546;13.348;2022-07-29T08:19:30;21.70;94.50
16523;DHT22;19889;52.546;13.348;2022-07-29T08:21:57;21.80;94.20
16523;DHT22;19889;52.546;13.348;2022-07-29T08:24:24;21.90;94.00
16523;DHT22;19889;52.546;13.348;2022-07-29T08:27:10;22.00;93.70
16523;DHT22;19889;52.546;13.348;2022-07-29T08:29:38;22.10;93.40
16523;DHT22;19889;52.546;13.348;2022-07-29T08:32:05;22.30;93.00
16523;DHT22;19889;52.546;13.348;2022-07-29T08:34:32;22.40;92.70
16523;DHT22;19889;52.546;13.348;2022-07-29T08:36:59;22.40;92.40
16523;DHT22;19889;52.546;13.348;2022-07-29T08:39:26;22.50;92.00
16523;DHT22;19889;52.546;13.348;2022-07-29T08:41:53;22.50;91.90
16523;DHT22;19889;52.546;13.348;2022-07-29T08:44:21;22.60;91.80
16523;DHT22;19889;52.546;13.348;2022-07-29T08:46:49;22.60;91.70
16523;DHT22;19889;52.546;13.348;2022-07-29T08:49:16;22.60;91.00
16523;DHT22;19889;52.546;13.348;2022-07-29T08:51:43;22.70;90.80
16523;DHT22;19889;52.546;13.348;2022-07-29T08:54:11;22.80;90.20
16523;DHT22;19889;52.546;13.348;2022-07-29T08:56:40;22.80;90.00
16523;DHT22;19889;52.546;13.348;2022-07-29T08:59:08;22.90;89.20
16523;DHT22;19889;52.546;13.348;2022-07-29T09:01:37;22.90;89.00
16523;DHT22;19889;52.546;13.348;2022-07-29T09:04:10;23.00;88.90
16523;DHT22;19889;52.546;13.348;2022-07-29T09:06:42;23.10;88.00
16523;DHT22;19889;52.546;13.348;2022-07-29T09:09:09;23.50;87.80
16523;DHT22;19889;52.546;13.348;2022-07-29T09:11:36;23.80;87.00
16523;DHT22;19889;52.546;13.348;2022-07-29T09:14:03;24.20;86.60
16523;DHT22;19889;52.546;13.348;2022-07-29T09:16:45;24.50;86.50
16523;DHT22;19889;52.546;13.348;2022-07-29T09:19:23;25.70;86.40
16523;DHT22;19889;52.546;13.348;2022-07-29T09:21:50;27.60;90.60
16523;DHT22;19889;52.546;13.348;2022-07-29T09:24:36;29.00;80.60
16523;DHT22;19889;52.546;13.348;2022-07-29T09:27:18;30.60;99.90
16523;DHT22;19889;52.546;13.348;2022-07-29T09:29:46;30.80;73.20
16523;DHT22;19889;52.546;13.348;2022-07-29T09:32:14;30.40;70.60
16523;DHT22;19889;52.546;13.348;2022-07-29T09:34:41;29.60;67.80
16523;DHT22;19889;52.546;13.348;2022-07-29T09:37:08;28.80;67.80
16523;DHT22;19889;52.546;13.348;2022-07-29T09:39:38;28.10;68.90
16523;DHT22;19889;52.546;13.348;2022-07-29T09:42:11;27.50;73.00
16523;DHT22;19889;52.546;13.348;2022-07-29T09:44:43;26.80;69.00
16523;DHT22;19889;52.546;13.348;2022-07-29T09:57:32;25.20;99.90
16523;DHT22;19889;52.546;13.348;2022-07-29T10:00:01;25.20;99.90
16523;DHT22;19889;52.546;13.348;2022-07-29T10:02:39;25.20;99.90
16523;DHT22;19889;52.546;13.348;2022-07-29T10:05:17;25.00;99.90
16523;DHT22;19889;52.546;13.348;2022-07-29T10:07:45;24.80;98.30
16523;DHT22;19889;52.546;13.348;2022-07-29T10:10:19;24.80;98.90
16523;DHT22;19889;52.546;13.348;2022-07-29T10:12:51;24.80;98.80
16523;DHT22;19889;52.546;13.348;2022-07-29T10:15:19;24.80;98.10
16523;DHT22;19889;52.546;13.348;2022-07-29T10:17:47;24.70;97.90
16523;DHT22;19889;52.546;13.348;2022-07-29T10:20:16;24.60;97.50
16523;DHT22;19889;52.546;13.348;2022-07-29T10:22:43;24.60;99.10
16523;DHT22;19889;52.546;13.348;2022-07-29T10:25:12;24.50;92.50
16523;DHT22;19889;52.546;13.348;2022-07-29T10:27:40;24.40;72.40
16523;DHT22;19889;52.546;13.348;2022-07-29T10:30:08;24.40;72.70
16523;DHT22;19889;52.546;13.348;2022-07-29T10:35:58;24.40;72.90
16523;DHT22;19889;52.546;13.348;2022-07-29T10:38:39;24.40;72.40
16523;DHT22;19889;52.546;13.348;2022-07-29T10:41:30;24.40;72.30
16523;DHT22;19889;52.546;13.348;2022-07-29T10:44:03;24.40;72.20
16523;DHT22;19889;52.546;13.348;2022-07-29T10:46:35;24.50;72.60
16523;DHT22;19889;52.546;13.348;2022-07-29T10:49:10;24.60;71.40
16523;DHT22;19889;52.546;13.348;2022-07-29T10:51:56;24.70;71.00
16523;DHT22;19889;52.546;13.348;2022-07-29T10:54:47;24.70;70.40
16523;DHT22;19889;52.546;13.348;2022-07-29T10:57:20;24.80;70.60
16523;DHT22;19889;52.546;13.348;2022-07-29T10:59:49;24.80;70.70
16523;DHT22;19889;52.546;13.348;2022-07-29T11:02:41;24.80;70.70
16523;DHT22;19889;52.546;13.348;2022-07-29T11:05:10;24.90;70.50
16523;DHT22;19889;52.546;13.348;2022-07-29T11:07:39;24.90;70.90
16523;DHT22;19889;52.546;13.348;2022-07-29T11:10:21;24.90;70.90
16523;DHT22;19889;52.546;13.348;2022-07-29T11:12:48;24.90;70.20
16523;DHT22;19889;52.546;13.348;2022-07-29T11:15:15;24.90;70.30
16523;DHT22;19889;52.546;13.348;2022-07-29T11:18:03;24.90;70.40
16523;DHT22;19889;52.546;13.348;2022-07-29T11:20:32;24.90;70.30
16523;DHT22;19889;52.546;13.348;2022-07-29T11:23:01;24.90;70.50
16523;DHT22;19889;52.546;13.348;2022-07-29T11:25:28;25.00;70.50
16523;DHT22;19889;52.546;13.348;2022-07-29T11:28:08;25.10;70.70
16523;DHT22;19889;52.546;13.348;2022-07-29T11:30:50;25.10;70.60
16523;DHT22;19889;52.546;13.348;2022-07-29T11:33:28;25.10;70.70
16523;DHT22;19889;52.546;13.348;2022-07-29T11:36:08;25.10;70.90
16523;DHT22;19889;52.546;13.348;2022-07-29T11:38:37;25.10;70.80
16523;DHT22;19889;52.546;13.348;2022-07-29T11:41:21;25.10;70.80
16523;DHT22;19889;52.546;13.348;2022-07-29T11:43:49;25.10;70.80
16523;DHT22;19889;52.546;13.348;2022-07-29T11:49:00;25.20;71.00
16523;DHT22;19889;52.546;13.348;2022-07-29T11:51:28;25.10;70.70
16523;DHT22;19889;52.546;13.348;2022-07-29T11:53:57;25.10;70.70
16523;DHT22;19889;52.546;13.348;2022-07-29T11:56:26;25.10;71.10
16523;DHT22;19889;52.546;13.348;2022-07-29T11:59:03;25.10;71.00
16523;DHT22;19889;52.546;13.348;2022-07-29T12:01:31;25.20;71.00
16523;DHT22;19889;52.546;13.348;2022-07-29T12:04:05;25.10;71.10
16523;DHT22;19889;52.546;13.348;2022-07-29T12:06:32;25.20;71.50
16523;DHT22;19889;52.546;13.348;2022-07-29T12:09:03;25.10;71.70
16523;DHT22;19889;52.546;13.348;2022-07-29T12:11:32;25.10;71.90
16523;DHT22;19889;52.546;13.348;2022-07-29T12:13:59;25.10;72.10
16523;DHT22;19889;52.546;13.348;2022-07-29T12:16:34;25.10;72.40
16523;DHT22;19889;52.546;13.348;2022-07-29T12:19:03;25.20;73.70
16523;DHT22;19889;52.546;13.348;2022-07-29T12:21:44;25.20;72.80
16523;DHT22;19889;52.546;13.348;2022-07-29T12:24:12;25.20;72.90
16523;DHT22;19889;52.546;13.348;2022-07-29T12:26:49;25.20;73.20
16523;DHT22;19889;52.546;13.348;2022-07-29T12:29:16;25.20;73.70
16523;DHT22;19889;52.546;13.348;2022-07-29T12:31:44;25.20;73.80
16523;DHT22;19889;52.546;13.348;2022-07-29T12:34:12;25.30;74.00
16523;DHT22;19889;52.546;13.348;2022-07-29T12:36:40;25.30;74.30
16523;DHT22;19889;52.546;13.348;2022-07-29T12:39:08;25.30;74.60
16523;DHT22;19889;52.546;13.348;2022-07-29T12:41:37;25.40;75.00
16523;DHT22;19889;52.546;13.348;2022-07-29T12:44:04;25.40;75.20
16523;DHT22;19889;52.546;13.348;2022-07-29T12:46:31;25.50;75.40
16523;DHT22;19889;52.546;13.348;2022-07-29T12:48:58;25.50;75.50
16523;DHT22;19889;52.546;13.348;2022-07-29T12:51:29;25.50;75.80
16523;DHT22;19889;52.546;13.348;2022-07-29T12:54:05;25.50;76.00
16523;DHT22;19889;52.546;13.348;2022-07-29T12:56:33;25.50;76.10
16523;DHT22;19889;52.546;13.348;2022-07-29T12:59:14;25.50;76.10
16523;DHT22;19889;52.546;13.348;2022-07-29T13:01:41;25.50;76.10
16523;DHT22;19889;52.546;13.348;2022-07-29T13:04:08;25.50;76.00
16523;DHT22;19889;52.546;13.348;2022-07-29T13:06:38;25.60;76.20
16523;DHT22;19889;52.546;13.348;2022-07-29T13:09:08;25.60;76.30
16523;DHT22;19889;52.546;13.348;2022-07-29T13:11:38;25.70;76.30
16523;DHT22;19889;52.546;13.348;2022-07-29T13:14:08;25.70;76.20
16523;DHT22;19889;52.546;13.348;2022-07-29T13:16:36;25.80;76.10
16523;DHT22;19889;52.546;13.348;2022-07-29T13:19:09;25.90;76.00
16523;DHT22;19889;52.546;13.348;2022-07-29T13:21:37;25.90;75.70
16523;DHT22;19889;52.546;13.348;2022-07-29T13:24:06;25.90;75.80
16523;DHT22;19889;52.546;13.348;2022-07-29T13:26:33;25.90;75.80
16523;DHT22;19889;52.546;13.348;2022-07-29T13:28:59;27.20;77.00
16523;DHT22;19889;52.546;13.348;2022-07-29T13:31:28;25.90;76.20
16523;DHT22;19889;52.546;13.348;2022-07-29T13:33:54;26.00;76.10
16523;DHT22;19889;52.546;13.348;2022-07-29T13:36:22;26.00;75.70
16523;DHT22;19889;52.546;13.348;2022-07-29T13:38:48;26.10;75.60
16523;DHT22;19889;52.546;13.348;2022-07-29T13:41:15;25.50;74.50
16523;DHT22;19889;52.546;13.348;2022-07-29T13:43:42;26.10;74.20
16523;DHT22;19889;52.546;13.348;2022-07-29T13:46:10;26.10;74.10
16523;DHT22;19889;52.546;13.348;2022-07-29T13:48:38;26.10;74.30
16523;DHT22;19889;52.546;13.348;2022-07-29T13:51:05;26.10;74.30
16523;DHT22;19889;52.546;13.348;2022-07-29T13:53:32;26.10;74.50
16523;DHT22;19889;52.546;13.348;2022-07-29T13:55:59;26.20;74.50
16523;DHT22;19889;52.546;13.348;2022-07-29T13:58:25;26.20;74.40
16523;DHT22;19889;52.546;13.348;2022-07-29T14:00:52;26.20;74.40
16523;DHT22;19889;52.546;13.348;2022-07-29T14:03:19;26.30;74.60
16523;DHT22;19889;52.546;13.348;2022-07-29T14:05:47;26.30;74.80
16523;DHT22;19889;52.546;13.348;2022-07-29T14:08:14;26.60;75.10
16523;DHT22;19889;52.546;13.348;2022-07-29T14:10:41;26.30;74.50
16523;DHT22;19889;52.546;13.348;2022-07-29T14:13:08;26.30;74.50
16523;DHT22;19889;52.546;13.348;2022-07-29T14:15:35;26.20;74.70
16523;DHT22;19889;52.546;13.348;2022-07-29T14:18:02;26.20;74.70
16523;DHT22;19889;52.546;13.348;2022-07-29T14:20:29;26.10;74.70
16523;DHT22;19889;52.546;13.348;2022-07-29T14:22:57;26.00;74.40
16523;DHT22;19889;52.546;13.348;2022-07-29T14:25:24;26.00;74.40
16523;DHT22;19889;52.546;13.348;2022-07-29T14:27:50;25.90;74.60
16523;DHT22;19889;52.546;13.348;2022-07-29T14:30:18;26.00;74.70
16523;DHT22;19889;52.546;13.348;2022-07-29T14:32:45;26.00;75.00
16523;DHT22;19889;52.546;13.348;2022-07-29T14:35:12;26.00;75.10
16523;DHT22;19889;52.546;13.348;2022-07-29T14:37:39;26.00;75.10
16523;DHT22;19889;52.546;13.348;2022-07-29T14:40:08;26.00;75.00
16523;DHT22;19889;52.546;13.348;2022-07-29T14:42:35;26.00;75.00
16523;DHT22;19889;52.546;13.348;2022-07-29T14:45:03;26.00;75.00
16523;DHT22;19889;52.546;13.348;2022-07-29T14:47:31;26.10;75.00
16523;DHT22;19889;52.546;13.348;2022-07-29T14:49:59;26.10;75.00
16523;DHT22;19889;52.546;13.348;2022-07-29T14:52:26;26.20;75.00
16523;DHT22;19889;52.546;13.348;2022-07-29T14:54:52;26.30;74.70
16523;DHT22;19889;52.546;13.348;2022-07-29T14:57:21;26.30;74.50
16523;DHT22;19889;52.546;13.348;2022-07-29T14:59:47;26.30;74.30
16523;DHT22;19889;52.546;13.348;2022-07-29T15:02:14;26.30;74.20
16523;DHT22;19889;52.546;13.348;2022-07-29T15:04:41;26.30;74.20
16523;DHT22;19889;52.546;13.348;2022-07-29T15:07:10;26.30;74.20
16523;DHT22;19889;52.546;13.348;2022-07-29T15:09:37;26.20;74.20
16523;DHT22;19889;52.546;13.348;2022-07-29T15:12:04;26.20;74.20
16523;DHT22;19889;52.546;13.348;2022-07-29T15:14:32;26.10;74.00
16523;DHT22;19889;52.546;13.348;2022-07-29T15:16:59;26.10;74.10
16523;DHT22;19889;52.546;13.348;2022-07-29T15:19:26;26.10;75.00
16523;DHT22;19889;52.546;13.348;2022-07-29T15:21:53;26.10;74.10
16523;DHT22;19889;52.546;13.348;2022-07-29T15:24:20;26.20;74.10
16523;DHT22;19889;52.546;13.348;2022-07-29T15:26:47;26.20;74.00
16523;DHT22;19889;52.546;13.348;2022-07-29T15:29:14;26.30;74.00
16523;DHT22;19889;52.546;13.348;2022-07-29T15:31:43;26.30;73.90
16523;DHT22;19889;52.546;13.348;2022-07-29T15:34:09;26.30;73.60
16523;DHT22;19889;52.546;13.348;2022-07-29T15:36:36;26.30;73.50
16523;DHT22;19889;52.546;13.348;2022-07-29T15:39:03;26.30;73.50
16523;DHT22;19889;52.546;13.348;2022-07-29T15:41:30;26.30;73.50
16523;DHT22;19889;52.546;13.348;2022-07-29T15:43:57;26.20;73.40